sensor_id;sensor_type;location;lat;lon;timestamp;temperature;humidity
12268;DHT22;6196;48.398;11.736;2022-11-20T00:01:16;5.90;99.90
12268;DHT22;6196;48.398;11.736;2022-11-20T00:03:47;5.90;99.90
12268;DHT22;6196;48.398;11.736;2022-11-20T00:06:16;5.90;99.90
12268;DHT22;6196;48.398;11.736;2022-11-20T00:08:44;6.00;99.90
12268;DHT22;6196;48.398;11.736;2022-11-20T00:11:15;6.00;99.90
12268;DHT22;6196;48.398;11.736;2022-11-20T00:13:44;6.10;99.90
12268;DHT22;6196;48.398;11.736;2022-11-20T00:16:13;6.10;99.90
12268;DHT22;6196;48.398;11.736;2022-11-20T00:18:41;6.10;99.90
12268;DHT22;6196;48.398;11.736;2022-11-20T00:21:20;6.00;99.90
12268;DHT22;6196;48.398;11.736;2022-11-20T00:23:49;6.00;99.90
12268;DHT22;6196;48.398;11.736;2022-11-20T00:26:21;6.10;99.90
12268;DHT22;6196;48.398;11.736;2022-11-20T00:28:51;6.10;99.90
12268;DHT22;6196;48.398;11.736;2022-11-20T00:31:26;6.00;99.90
12268;DHT22;6196;48.398;11.736;2022-11-20T00:33:54;6.20;99.90
12268;DHT22;6196;48.398;11.736;2022-11-20T00:36:23;6.10;99.90
12268;DHT22;6196;48.398;11.736;2022-11-20T00:38:52;6.00;99.90
12268;DHT22;6196;48.398;11.736;2022-11-20T00:41:20;6.10;99.90
12268;DHT22;6196;48.398;11.736;2022-11-20T00:43:47;6.10;99.90
12268;DHT22;6196;48.398;11.736;2022-11-20T00:46:19;6.10;99.90
12268;DHT22;6196;48.398;11.736;2022-11-20T00:48:48;6.10;99.90
12268;DHT22;6196;48.398;11.736;2022-11-20T00:51:17;6.00;99.90
12268;DHT22;6196;48.398;11.736;2022-11-20T00:53:46;5.90;99.90
12268;DHT22;6196;48.398;11.736;2022-11-20T00:56:15;5.90;99.90
12268;DHT22;6196;48.398;11.736;2022-11-20T00:58:45;6.00;99.90
12268;DHT22;6196;48.398;11.736;2022-11-20T01:01:16;5.90;99.90
12268;DHT22;6196;48.398;11.736;2022-11-20T01:03:48;5.90;99.90
12268;DHT22;6196;48.398;11.736;2022-11-20T01:06:18;5.90;99.90
12268;DHT22;6196;48.398;11.736;2022-11-20T01:08:47;5.90;99.90
12268;DHT22;6196;48.398;11.736;2022-11-20T01:11:17;5.90;99.90
12268;DHT22;6196;48.398;11.736;2022-11-20T01:13:47;5.90;99.90
12268;DHT22;6196;48.398;11.736;2022-11-20T01:16:20;5.90;99.90
12268;DHT22;6196;48.398;11.736;2022-11-20T01:18:51;5.90;99.90
12268;DHT22;6196;48.398;11.736;2022-11-20T01:21:30;5.90;99.90
12268;DHT22;6196;48.398;11.736;2022-11-20T01:23:59;6.00;99.90
12268;DHT22;6196;48.398;11.736;2022-11-20T01:26:29;6.00;99.90
12268;DHT22;6196;48.398;11.736;2022-11-20T01:28:59;5.90;99.90
12268;DHT22;6196;48.398;11.736;2022-11-20T01:31:28;5.90;99.90
12268;DHT22;6196;48.398;11.736;2022-11-20T01:33:58;5.90;99.90
12268;DHT22;6196;48.398;11.736;2022-11-20T01:36:28;5.90;99.90
12268;DHT22;6196;48.398;11.736;2022-11-20T01:38:58;6.00;99.90
12268;DHT22;6196;48.398;11.736;2022-11-20T01:41:28;6.00;99.90
12268;DHT22;6196;48.398;11.736;2022-11-20T01:44:16;6.00;99.90
12268;DHT22;6196;48.398;11.736;2022-11-20T01:49:39;6.00;99.90
12268;DHT22;6196;48.398;11.736;2022-11-20T01:54:46;6.00;99.90
12268;DHT22;6196;48.398;11.736;2022-11-20T01:57:17;5.90;99.90
12268;DHT22;6196;48.398;11.736;2022-11-20T01:59:53;5.90;99.90
12268;DHT22;6196;48.398;11.736;2022-11-20T02:02:26;6.00;99.90
12268;DHT22;6196;48.398;11.736;2022-11-20T02:04:57;5.90;99.90
12268;DHT22;6196;48.398;11.736;2022-11-20T02:07:29;5.90;99.90
12268;DHT22;6196;48.398;11.736;2022-11-20T02:09:57;5.90;99.90
12268;DHT22;6196;48.398;11.736;2022-11-20T02:12:24;6.10;99.90
12268;DHT22;6196;48.398;11.736;2022-11-20T02:15:10;5.80;99.90
12268;DHT22;6196;48.398;11.736;2022-11-20T02:17:37;5.80;99.90
12268;DHT22;6196;48.398;11.736;2022-11-20T02:20:05;5.80;99.90
12268;DHT22;6196;48.398;11.736;2022-11-20T02:22:39;5.80;99.90
12268;DHT22;6196;48.398;11.736;2022-11-20T02:25:15;5.80;99.90
12268;DHT22;6196;48.398;11.736;2022-11-20T02:27:42;5.80;99.90
12268;DHT22;6196;48.398;11.736;2022-11-20T02:30:10;5.80;99.90
12268;DHT22;6196;48.398;11.736;2022-11-20T02:32:38;5.80;99.90
12268;DHT22;6196;48.398;11.736;2022-11-20T02:37:39;5.80;99.90
12268;DHT22;6196;48.398;11.736;2022-11-20T02:40:07;5.80;99.90
12268;DHT22;6196;48.398;11.736;2022-11-20T02:42:35;5.90;99.90
12268;DHT22;6196;48.398;11.736;2022-11-20T02:45:04;5.80;99.90
12268;DHT22;6196;48.398;11.736;2022-11-20T02:47:32;5.80;99.90
12268;DHT22;6196;48.398;11.736;2022-11-20T02:49:59;5.80;99.90
12268;DHT22;6196;48.398;11.736;2022-11-20T02:52:26;5.80;99.90
12268;DHT22;6196;48.398;11.736;2022-11-20T02:54:52;5.80;99.90
12268;DHT22;6196;48.398;11.736;2022-11-20T02:57:19;5.80;99.90
12268;DHT22;6196;48.398;11.736;2022-11-20T02:59:46;5.70;99.90
12268;DHT22;6196;48.398;11.736;2022-11-20T03:02:13;5.70;99.90
12268;DHT22;6196;48.398;11.736;2022-11-20T03:04:40;5.70;99.90
12268;DHT22;6196;48.398;11.736;2022-11-20T03:07:08;5.60;99.90
12268;DHT22;6196;48.398;11.736;2022-11-20T03:09:36;5.60;99.90
12268;DHT22;6196;48.398;11.736;2022-11-20T03:12:03;5.60;99.90
12268;DHT22;6196;48.398;11.736;2022-11-20T03:14:30;5.60;99.90
12268;DHT22;6196;48.398;11.736;2022-11-20T03:16:57;5.60;99.90
12268;DHT22;6196;48.398;11.736;2022-11-20T03:19:24;5.60;99.90
12268;DHT22;6196;48.398;11.736;2022-11-20T03:21:51;5.70;99.90
12268;DHT22;6196;48.398;11.736;2022-11-20T03:24:18;5.70;99.90
12268;DHT22;6196;48.398;11.736;2022-11-20T03:26:44;5.70;99.90
12268;DHT22;6196;48.398;11.736;2022-11-20T03:29:11;5.70;99.90
12268;DHT22;6196;48.398;11.736;2022-11-20T03:31:40;5.60;99.90
12268;DHT22;6196;48.398;11.736;2022-11-20T03:34:08;5.70;99.90
12268;DHT22;6196;48.398;11.736;2022-11-20T03:36:40;5.60;99.90
12268;DHT22;6196;48.398;11.736;2022-11-20T03:39:08;5.50;99.90
12268;DHT22;6196;48.398;11.736;2022-11-20T03:41:38;5.50;99.90
12268;DHT22;6196;48.398;11.736;2022-11-20T03:44:08;5.50;99.90
12268;DHT22;6196;48.398;11.736;2022-11-20T03:46:36;5.50;99.90
12268;DHT22;6196;48.398;11.736;2022-11-20T03:49:04;5.50;99.90
12268;DHT22;6196;48.398;11.736;2022-11-20T03:51:33;5.60;99.90
12268;DHT22;6196;48.398;11.736;2022-11-20T03:54:06;5.60;99.90
12268;DHT22;6196;48.398;11.736;2022-11-20T03:56:36;5.60;99.90
12268;DHT22;6196;48.398;11.736;2022-11-20T03:59:04;5.60;99.90
12268;DHT22;6196;48.398;11.736;2022-11-20T04:01:33;5.60;99.90
12268;DHT22;6196;48.398;11.736;2022-11-20T04:04:02;5.60;99.90
12268;DHT22;6196;48.398;11.736;2022-11-20T04:06:33;5.60;99.90
12268;DHT22;6196;48.398;11.736;2022-11-20T04:09:03;5.60;99.90
12268;DHT22;6196;48.398;11.736;2022-11-20T04:11:32;5.50;99.90
12268;DHT22;6196;48.398;11.736;2022-11-20T04:14:03;5.50;99.90
12268;DHT22;6196;48.398;11.736;2022-11-20T04:16:35;5.60;99.90
12268;DHT22;6196;48.398;11.736;2022-11-20T04:19:05;5.60;99.90
12268;DHT22;6196;48.398;11.736;2022-11-20T04:21:33;5.60;99.90
12268;DHT22;6196;48.398;11.736;2022-11-20T04:24:00;5.70;99.90
12268;DHT22;6196;48.398;11.736;2022-11-20T04:26:28;5.60;99.90
12268;DHT22;6196;48.398;11.736;2022-11-20T04:28:56;5.50;99.90
12268;DHT22;6196;48.398;11.736;2022-11-20T04:31:26;5.50;99.90
12268;DHT22;6196;48.398;11.736;2022-11-20T04:33:54;5.60;99.90
12268;DHT22;6196;48.398;11.736;2022-11-20T04:36:26;5.60;99.90
12268;DHT22;6196;48.398;11.736;2022-11-20T04:38:55;5.60;99.90
12268;DHT22;6196;48.398;11.736;2022-11-20T04:41:27;5.60;99.90
12268;DHT22;6196;48.398;11.736;2022-11-20T04:43:58;5.60;99.90
12268;DHT22;6196;48.398;11.736;2022-11-20T04:46:30;5.60;99.90
12268;DHT22;6196;48.398;11.736;2022-11-20T04:48:59;5.60;99.90
12268;DHT22;6196;48.398;11.736;2022-11-20T04:51:26;5.60;99.90
12268;DHT22;6196;48.398;11.736;2022-11-20T04:53:54;5.60;99.90
12268;DHT22;6196;48.398;11.736;2022-11-20T04:56:20;5.60;99.90
12268;DHT22;6196;48.398;11.736;2022-11-20T04:58:47;5.60;99.90
12268;DHT22;6196;48.398;11.736;2022-11-20T05:01:23;5.50;99.90
12268;DHT22;6196;48.398;11.736;2022-11-20T05:03:50;5.60;99.90
12268;DHT22;6196;48.398;11.736;2022-11-20T05:06:20;5.50;99.90
12268;DHT22;6196;48.398;11.736;2022-11-20T05:08:47;5.50;99.90
12268;DHT22;6196;48.398;11.736;2022-11-20T05:11:17;5.60;99.90
12268;DHT22;6196;48.398;11.736;2022-11-20T05:13:46;5.60;99.90
12268;DHT22;6196;48.398;11.736;2022-11-20T05:16:15;5.60;99.90
12268;DHT22;6196;48.398;11.736;2022-11-20T05:18:44;5.60;99.90
12268;DHT22;6196;48.398;11.736;2022-11-20T05:21:12;5.60;99.90
12268;DHT22;6196;48.398;11.736;2022-11-20T05:23:40;5.60;99.90
12268;DHT22;6196;48.398;11.736;2022-11-20T05:26:12;5.70;99.90
12268;DHT22;6196;48.398;11.736;2022-11-20T05:28:48;5.60;99.90
12268;DHT22;6196;48.398;11.736;2022-11-20T05:31:20;5.60;99.90
12268;DHT22;6196;48.398;11.736;2022-11-20T05:33:54;5.70;99.90
12268;DHT22;6196;48.398;11.736;2022-11-20T05:36:22;5.70;99.90
12268;DHT22;6196;48.398;11.736;2022-11-20T05:38:49;5.70;99.90
12268;DHT22;6196;48.398;11.736;2022-11-20T05:41:19;5.70;99.90
12268;DHT22;6196;48.398;11.736;2022-11-20T05:43:47;5.60;99.90
12268;DHT22;6196;48.398;11.736;2022-11-20T05:46:16;5.60;99.90
12268;DHT22;6196;48.398;11.736;2022-11-20T05:48:50;5.60;99.90
12268;DHT22;6196;48.398;11.736;2022-11-20T05:51:18;5.60;99.90
12268;DHT22;6196;48.398;11.736;2022-11-20T05:53:46;5.70;99.90
12268;DHT22;6196;48.398;11.736;2022-11-20T05:56:19;5.60;99.90
12268;DHT22;6196;48.398;11.736;2022-11-20T05:58:47;5.60;99.90
12268;DHT22;6196;48.398;11.736;2022-11-20T06:01:23;5.60;99.90
12268;DHT22;6196;48.398;11.736;2022-11-20T06:03:52;5.60;99.90
12268;DHT22;6196;48.398;11.736;2022-11-20T06:06:20;5.50;99.90
12268;DHT22;6196;48.398;11.736;2022-11-20T06:08:48;5.40;99.90
12268;DHT22;6196;48.398;11.736;2022-11-20T06:11:16;5.40;99.90
12268;DHT22;6196;48.398;11.736;2022-11-20T06:13:44;5.40;99.90
12268;DHT22;6196;48.398;11.736;2022-11-20T06:16:14;5.30;99.90
12268;DHT22;6196;48.398;11.736;2022-11-20T06:18:42;5.20;99.90
12268;DHT22;6196;48.398;11.736;2022-11-20T06:21:13;5.10;99.90
12268;DHT22;6196;48.398;11.736;2022-11-20T06:23:45;5.10;99.90
12268;DHT22;6196;48.398;11.736;2022-11-20T06:26:18;5.10;99.90
12268;DHT22;6196;48.398;11.736;2022-11-20T06:28:50;5.10;99.90
12268;DHT22;6196;48.398;11.736;2022-11-20T06:31:20;5.10;99.90
12268;DHT22;6196;48.398;11.736;2022-11-20T06:33:48;5.20;99.90
12268;DHT22;6196;48.398;11.736;2022-11-20T06:36:17;5.20;99.90
12268;DHT22;6196;48.398;11.736;2022-11-20T06:38:45;5.20;99.90
12268;DHT22;6196;48.398;11.736;2022-11-20T06:41:14;5.30;99.90
12268;DHT22;6196;48.398;11.736;2022-11-20T06:43:42;5.30;99.90
12268;DHT22;6196;48.398;11.736;2022-11-20T06:46:11;5.30;99.90
12268;DHT22;6196;48.398;11.736;2022-11-20T06:48:39;5.20;99.90
12268;DHT22;6196;48.398;11.736;2022-11-20T06:51:07;5.20;99.90
12268;DHT22;6196;48.398;11.736;2022-11-20T06:53:35;5.10;99.90
12268;DHT22;6196;48.398;11.736;2022-11-20T06:56:03;5.20;99.90
12268;DHT22;6196;48.398;11.736;2022-11-20T06:58:31;5.20;99.90
12268;DHT22;6196;48.398;11.736;2022-11-20T07:01:06;5.20;99.90
12268;DHT22;6196;48.398;11.736;2022-11-20T07:03:38;5.10;99.90
12268;DHT22;6196;48.398;11.736;2022-11-20T07:06:06;5.10;99.90
12268;DHT22;6196;48.398;11.736;2022-11-20T07:08:34;5.00;99.90
12268;DHT22;6196;48.398;11.736;2022-11-20T07:11:03;5.00;99.90
12268;DHT22;6196;48.398;11.736;2022-11-20T07:13:32;5.10;99.90
12268;DHT22;6196;48.398;11.736;2022-11-20T07:16:00;5.20;99.90
12268;DHT22;6196;48.398;11.736;2022-11-20T07:18:33;5.20;99.90
12268;DHT22;6196;48.398;11.736;2022-11-20T07:21:01;5.30;99.90
12268;DHT22;6196;48.398;11.736;2022-11-20T07:23:29;5.40;99.90
12268;DHT22;6196;48.398;11.736;2022-11-20T07:25:56;5.40;99.90
12268;DHT22;6196;48.398;11.736;2022-11-20T07:28:22;5.50;99.90
12268;DHT22;6196;48.398;11.736;2022-11-20T07:30:53;5.50;99.90
12268;DHT22;6196;48.398;11.736;2022-11-20T07:33:20;5.70;99.90
12268;DHT22;6196;48.398;11.736;2022-11-20T07:35:47;5.70;99.90
12268;DHT22;6196;48.398;11.736;2022-11-20T07:38:14;5.70;99.90
12268;DHT22;6196;48.398;11.736;2022-11-20T07:40:41;5.80;99.90
12268;DHT22;6196;48.398;11.736;2022-11-20T07:43:08;5.70;99.90
12268;DHT22;6196;48.398;11.736;2022-11-20T07:45:35;5.80;99.90
12268;DHT22;6196;48.398;11.736;2022-11-20T07:48:02;5.80;99.90
12268;DHT22;6196;48.398;11.736;2022-11-20T07:50:29;5.90;99.90
12268;DHT22;6196;48.398;11.736;2022-11-20T07:53:05;5.90;99.90
12268;DHT22;6196;48.398;11.736;2022-11-20T07:55:32;6.00;99.90
12268;DHT22;6196;48.398;11.736;2022-11-20T07:57:59;6.00;99.90
12268;DHT22;6196;48.398;11.736;2022-11-20T08:00:27;6.00;99.90
12268;DHT22;6196;48.398;11.736;2022-11-20T08:02:54;6.00;99.90
12268;DHT22;6196;48.398;11.736;2022-11-20T08:05:21;6.10;99.90
12268;DHT22;6196;48.398;11.736;2022-11-20T08:07:48;5.90;99.90
12268;DHT22;6196;48.398;11.736;2022-11-20T08:10:15;6.20;99.90
12268;DHT22;6196;48.398;11.736;2022-11-20T08:12:50;6.20;99.90
12268;DHT22;6196;48.398;11.736;2022-11-20T08:15:37;6.30;99.90
12268;DHT22;6196;48.398;11.736;2022-11-20T08:18:07;6.20;99.90
12268;DHT22;6196;48.398;11.736;2022-11-20T08:20:55;6.20;99.90
12268;DHT22;6196;48.398;11.736;2022-11-20T08:23:23;6.20;99.90
12268;DHT22;6196;48.398;11.736;2022-11-20T08:25:50;6.30;99.90
12268;DHT22;6196;48.398;11.736;2022-11-20T08:28:17;6.40;99.90
12268;DHT22;6196;48.398;11.736;2022-11-20T08:30:48;6.40;99.90
12268;DHT22;6196;48.398;11.736;2022-11-20T08:33:17;6.30;99.90
12268;DHT22;6196;48.398;11.736;2022-11-20T08:35:44;6.40;99.90
12268;DHT22;6196;48.398;11.736;2022-11-20T08:38:11;6.50;99.90
12268;DHT22;6196;48.398;11.736;2022-11-20T08:40:38;6.60;99.90
12268;DHT22;6196;48.398;11.736;2022-11-20T08:43:05;6.70;99.90
12268;DHT22;6196;48.398;11.736;2022-11-20T08:45:31;6.60;99.90
12268;DHT22;6196;48.398;11.736;2022-11-20T08:48:02;6.70;99.90
12268;DHT22;6196;48.398;11.736;2022-11-20T08:50:30;6.70;99.90
12268;DHT22;6196;48.398;11.736;2022-11-20T08:53:05;6.80;99.90
12268;DHT22;6196;48.398;11.736;2022-11-20T08:55:32;6.90;99.90
12268;DHT22;6196;48.398;11.736;2022-11-20T08:58:06;6.90;99.90
12268;DHT22;6196;48.398;11.736;2022-11-20T09:00:33;7.00;99.90
12268;DHT22;6196;48.398;11.736;2022-11-20T09:03:01;7.00;99.90
12268;DHT22;6196;48.398;11.736;2022-11-20T09:05:28;7.00;99.90
12268;DHT22;6196;48.398;11.736;2022-11-20T09:07:58;7.10;99.90
12268;DHT22;6196;48.398;11.736;2022-11-20T09:10:26;7.10;99.90
12268;DHT22;6196;48.398;11.736;2022-11-20T09:12:54;7.20;99.90
12268;DHT22;6196;48.398;11.736;2022-11-20T09:15:23;7.30;99.90
12268;DHT22;6196;48.398;11.736;2022-11-20T09:17:59;7.40;99.90
12268;DHT22;6196;48.398;11.736;2022-11-20T09:20:30;7.40;99.90
12268;DHT22;6196;48.398;11.736;2022-11-20T09:22:57;7.40;99.90
12268;DHT22;6196;48.398;11.736;2022-11-20T09:25:24;7.30;99.90
12268;DHT22;6196;48.398;11.736;2022-11-20T09:27:58;7.20;99.90
12268;DHT22;6196;48.398;11.736;2022-11-20T09:30:26;7.20;99.90
12268;DHT22;6196;48.398;11.736;2022-11-20T09:32:53;7.40;99.90
12268;DHT22;6196;48.398;11.736;2022-11-20T09:35:20;7.50;99.90
12268;DHT22;6196;48.398;11.736;2022-11-20T09:37:47;7.40;99.90
12268;DHT22;6196;48.398;11.736;2022-11-20T09:40:21;7.40;99.90
12268;DHT22;6196;48.398;11.736;2022-11-20T09:42:54;7.60;99.90
12268;DHT22;6196;48.398;11.736;2022-11-20T09:45:56;7.70;99.90
12268;DHT22;6196;48.398;11.736;2022-11-20T09:54:32;7.60;99.90
12268;DHT22;6196;48.398;11.736;2022-11-20T09:57:10;7.60;99.90
12268;DHT22;6196;48.398;11.736;2022-11-20T09:59:49;7.70;99.90
12268;DHT22;6196;48.398;11.736;2022-11-20T10:05:05;7.60;99.90
12268;DHT22;6196;48.398;11.736;2022-11-20T10:07:52;7.60;99.90
12268;DHT22;6196;48.398;11.736;2022-11-20T10:27:39;8.20;99.90
12268;DHT22;6196;48.398;11.736;2022-11-20T10:30:12;8.60;99.90
12268;DHT22;6196;48.398;11.736;2022-11-20T10:32:44;9.20;99.90
12268;DHT22;6196;48.398;11.736;2022-11-20T10:37:44;10.40;99.90
12268;DHT22;6196;48.398;11.736;2022-11-20T10:46:08;10.00;99.90
12268;DHT22;6196;48.398;11.736;2022-11-20T10:48:41;9.60;99.90
12268;DHT22;6196;48.398;11.736;2022-11-20T10:51:30;9.50;99.90
12268;DHT22;6196;48.398;11.736;2022-11-20T11:00:21;9.50;99.90
12268;DHT22;6196;48.398;11.736;2022-11-20T11:02:50;9.30;99.90
12268;DHT22;6196;48.398;11.736;2022-11-20T11:05:37;9.00;99.90
12268;DHT22;6196;48.398;11.736;2022-11-20T11:08:14;8.80;99.90
12268;DHT22;6196;48.398;11.736;2022-11-20T11:11:00;8.60;99.90
12268;DHT22;6196;48.398;11.736;2022-11-20T11:13:45;8.40;99.90
12268;DHT22;6196;48.398;11.736;2022-11-20T11:16:24;8.20;99.90
12268;DHT22;6196;48.398;11.736;2022-11-20T11:19:12;8.10;99.90
12268;DHT22;6196;48.398;11.736;2022-11-20T11:21:50;8.20;99.90
12268;DHT22;6196;48.398;11.736;2022-11-20T11:24:26;8.20;99.90
12268;DHT22;6196;48.398;11.736;2022-11-20T11:27:14;8.20;99.90
12268;DHT22;6196;48.398;11.736;2022-11-20T11:29:45;8.10;99.90
12268;DHT22;6196;48.398;11.736;2022-11-20T11:32:14;8.00;99.90
12268;DHT22;6196;48.398;11.736;2022-11-20T11:34:58;8.10;99.90
12268;DHT22;6196;48.398;11.736;2022-11-20T11:37:37;8.20;99.90
12268;DHT22;6196;48.398;11.736;2022-11-20T11:40:11;8.50;99.90
12268;DHT22;6196;48.398;11.736;2022-11-20T11:42:57;8.80;99.90
12268;DHT22;6196;48.398;11.736;2022-11-20T11:45:26;9.00;99.90
12268;DHT22;6196;48.398;11.736;2022-11-20T11:47:56;9.10;99.90
12268;DHT22;6196;48.398;11.736;2022-11-20T11:50:28;9.10;99.90
12268;DHT22;6196;48.398;11.736;2022-11-20T11:58:20;8.30;99.90
12268;DHT22;6196;48.398;11.736;2022-11-20T12:00:56;8.40;99.90
12268;DHT22;6196;48.398;11.736;2022-11-20T12:03:40;8.40;99.90
12268;DHT22;6196;48.398;11.736;2022-11-20T12:06:14;8.30;99.90
12268;DHT22;6196;48.398;11.736;2022-11-20T12:09:04;8.30;99.90
12268;DHT22;6196;48.398;11.736;2022-11-20T12:11:56;8.30;99.90
12268;DHT22;6196;48.398;11.736;2022-11-20T12:14:37;8.30;99.90
12268;DHT22;6196;48.398;11.736;2022-11-20T12:17:10;8.20;99.90
12268;DHT22;6196;48.398;11.736;2022-11-20T12:19:38;8.40;99.90
12268;DHT22;6196;48.398;11.736;2022-11-20T12:25:09;8.30;99.90
12268;DHT22;6196;48.398;11.736;2022-11-20T12:27:54;8.10;99.90
12268;DHT22;6196;48.398;11.736;2022-11-20T12:30:33;8.30;99.90
12268;DHT22;6196;48.398;11.736;2022-11-20T12:57:15;8.40;99.90
12268;DHT22;6196;48.398;11.736;2022-11-20T13:00:10;8.20;99.90
12268;DHT22;6196;48.398;11.736;2022-11-20T13:05:50;8.00;99.90
12268;DHT22;6196;48.398;11.736;2022-11-20T13:08:36;8.00;99.90
12268;DHT22;6196;48.398;11.736;2022-11-20T13:11:30;7.80;99.90
12268;DHT22;6196;48.398;11.736;2022-11-20T13:16:58;7.90;99.90
12268;DHT22;6196;48.398;11.736;2022-11-20T13:19:32;7.90;99.90
12268;DHT22;6196;48.398;11.736;2022-11-20T13:21:59;7.80;99.90
12268;DHT22;6196;48.398;11.736;2022-11-20T13:24:30;7.80;99.90
12268;DHT22;6196;48.398;11.736;2022-11-20T13:29:44;7.80;99.90
12268;DHT22;6196;48.398;11.736;2022-11-20T13:32:17;7.50;99.90
12268;DHT22;6196;48.398;11.736;2022-11-20T13:34:59;7.50;99.90
12268;DHT22;6196;48.398;11.736;2022-11-20T13:37:37;7.30;99.90
12268;DHT22;6196;48.398;11.736;2022-11-20T13:45:20;7.30;99.90
12268;DHT22;6196;48.398;11.736;2022-11-20T13:47:50;7.30;99.90
12268;DHT22;6196;48.398;11.736;2022-11-20T13:50:19;7.50;99.90
12268;DHT22;6196;48.398;11.736;2022-11-20T13:53:14;7.30;99.90
12268;DHT22;6196;48.398;11.736;2022-11-20T13:56:05;7.30;99.90
12268;DHT22;6196;48.398;11.736;2022-11-20T13:58:56;7.30;99.90
12268;DHT22;6196;48.398;11.736;2022-11-20T14:01:31;7.40;99.90
12268;DHT22;6196;48.398;11.736;2022-11-20T14:03:59;7.20;99.90
12268;DHT22;6196;48.398;11.736;2022-11-20T14:06:41;7.20;99.90
12268;DHT22;6196;48.398;11.736;2022-11-20T14:09:32;7.40;99.90
12268;DHT22;6196;48.398;11.736;2022-11-20T14:11:59;7.20;99.90
12268;DHT22;6196;48.398;11.736;2022-11-20T14:14:29;7.40;99.90
12268;DHT22;6196;48.398;11.736;2022-11-20T14:17:15;7.30;99.90
12268;DHT22;6196;48.398;11.736;2022-11-20T14:20:03;7.20;99.90
12268;DHT22;6196;48.398;11.736;2022-11-20T14:22:31;7.30;99.90
12268;DHT22;6196;48.398;11.736;2022-11-20T14:27:49;7.20;99.90
12268;DHT22;6196;48.398;11.736;2022-11-20T14:30:23;7.10;99.90
12268;DHT22;6196;48.398;11.736;2022-11-20T14:32:54;7.10;99.90
12268;DHT22;6196;48.398;11.736;2022-11-20T14:35:29;7.20;99.90
12268;DHT22;6196;48.398;11.736;2022-11-20T14:37:58;7.20;99.90
12268;DHT22;6196;48.398;11.736;2022-11-20T14:40:30;7.00;99.90
12268;DHT22;6196;48.398;11.736;2022-11-20T14:43:25;7.10;99.90
12268;DHT22;6196;48.398;11.736;2022-11-20T14:46:08;7.10;99.90
12268;DHT22;6196;48.398;11.736;2022-11-20T14:48:57;7.20;99.90
12268;DHT22;6196;48.398;11.736;2022-11-20T14:51:33;7.00;99.90
12268;DHT22;6196;48.398;11.736;2022-11-20T14:54:20;7.00;99.90
12268;DHT22;6196;48.398;11.736;2022-11-20T14:57:00;6.90;99.90
12268;DHT22;6196;48.398;11.736;2022-11-20T14:59:33;6.90;99.90
12268;DHT22;6196;48.398;11.736;2022-11-20T15:02:10;6.90;99.90
12268;DHT22;6196;48.398;11.736;2022-11-20T15:04:48;7.00;99.90
12268;DHT22;6196;48.398;11.736;2022-11-20T15:07:26;7.10;99.90
12268;DHT22;6196;48.398;11.736;2022-11-20T15:12:41;7.10;99.90
12268;DHT22;6196;48.398;11.736;2022-11-20T15:18:19;7.00;99.90
12268;DHT22;6196;48.398;11.736;2022-11-20T15:20:49;6.90;99.90
12268;DHT22;6196;48.398;11.736;2022-11-20T15:23:18;6.80;99.90
12268;DHT22;6196;48.398;11.736;2022-11-20T15:25:46;6.80;99.90
12268;DHT22;6196;48.398;11.736;2022-11-20T15:28:27;6.70;99.90
12268;DHT22;6196;48.398;11.736;2022-11-20T15:30:57;6.60;99.90
12268;DHT22;6196;48.398;11.736;2022-11-20T15:33:24;6.70;99.90
12268;DHT22;6196;48.398;11.736;2022-11-20T15:35:51;6.60;99.90
12268;DHT22;6196;48.398;11.736;2022-11-20T15:38:18;6.50;99.90
12268;DHT22;6196;48.398;11.736;2022-11-20T15:40:44;6.50;99.90
12268;DHT22;6196;48.398;11.736;2022-11-20T15:43:11;6.50;99.90
12268;DHT22;6196;48.398;11.736;2022-11-20T15:45:53;6.40;99.90
12268;DHT22;6196;48.398;11.736;2022-11-20T15:48:28;6.30;99.90
12268;DHT22;6196;48.398;11.736;2022-11-20T15:53:39;6.20;99.90
12268;DHT22;6196;48.398;11.736;2022-11-20T15:56:14;6.20;99.90
12268;DHT22;6196;48.398;11.736;2022-11-20T15:58:41;6.10;99.90
12268;DHT22;6196;48.398;11.736;2022-11-20T16:01:12;6.10;99.90
12268;DHT22;6196;48.398;11.736;2022-11-20T16:03:41;6.10;99.90
12268;DHT22;6196;48.398;11.736;2022-11-20T16:06:08;6.20;99.90
12268;DHT22;6196;48.398;11.736;2022-11-20T16:08:35;6.30;99.90
12268;DHT22;6196;48.398;11.736;2022-11-20T16:11:02;6.20;99.90
12268;DHT22;6196;48.398;11.736;2022-11-20T16:13:31;6.30;99.90
12268;DHT22;6196;48.398;11.736;2022-11-20T16:16:27;6.30;99.90
12268;DHT22;6196;48.398;11.736;2022-11-20T16:18:59;6.30;99.90
12268;DHT22;6196;48.398;11.736;2022-11-20T16:21:27;6.30;99.90
12268;DHT22;6196;48.398;11.736;2022-11-20T16:24:03;6.30;99.90
12268;DHT22;6196;48.398;11.736;2022-11-20T16:26:32;6.30;99.90
12268;DHT22;6196;48.398;11.736;2022-11-20T16:29:00;6.20;99.90
12268;DHT22;6196;48.398;11.736;2022-11-20T16:31:29;6.40;99.90
12268;DHT22;6196;48.398;11.736;2022-11-20T16:33:57;6.40;99.90
12268;DHT22;6196;48.398;11.736;2022-11-20T16:36:27;6.40;99.90
12268;DHT22;6196;48.398;11.736;2022-11-20T16:38:57;6.10;99.90
12268;DHT22;6196;48.398;11.736;2022-11-20T16:41:27;6.20;99.90
12268;DHT22;6196;48.398;11.736;2022-11-20T16:43:57;6.20;99.90
12268;DHT22;6196;48.398;11.736;2022-11-20T16:46:28;6.00;99.90
12268;DHT22;6196;48.398;11.736;2022-11-20T16:48:58;6.00;99.90
12268;DHT22;6196;48.398;11.736;2022-11-20T16:51:34;5.80;99.90
12268;DHT22;6196;48.398;11.736;2022-11-20T16:54:06;5.80;99.90
12268;DHT22;6196;48.398;11.736;2022-11-20T16:56:34;5.70;99.90
12268;DHT22;6196;48.398;11.736;2022-11-20T16:59:02;5.70;99.90
12268;DHT22;6196;48.398;11.736;2022-11-20T17:01:29;5.70;99.90
12268;DHT22;6196;48.398;11.736;2022-11-20T17:04:02;5.60;99.90
12268;DHT22;6196;48.398;11.736;2022-11-20T17:06:39;5.60;99.90
12268;DHT22;6196;48.398;11.736;2022-11-20T17:09:09;5.60;99.90
12268;DHT22;6196;48.398;11.736;2022-11-20T17:11:37;5.60;99.90
12268;DHT22;6196;48.398;11.736;2022-11-20T17:14:04;5.50;99.90
12268;DHT22;6196;48.398;11.736;2022-11-20T17:16:34;5.50;99.90
12268;DHT22;6196;48.398;11.736;2022-11-20T17:19:01;5.50;99.90
12268;DHT22;6196;48.398;11.736;2022-11-20T17:21:31;5.50;99.90
12268;DHT22;6196;48.398;11.736;2022-11-20T17:24:03;5.40;99.90
12268;DHT22;6196;48.398;11.736;2022-11-20T17:26:35;5.40;99.90
12268;DHT22;6196;48.398;11.736;2022-11-20T17:29:05;5.40;99.90
12268;DHT22;6196;48.398;11.736;2022-11-20T17:31:36;5.30;99.90
12268;DHT22;6196;48.398;11.736;2022-11-20T17:34:07;5.20;99.90
12268;DHT22;6196;48.398;11.736;2022-11-20T17:36:37;5.20;99.90
12268;DHT22;6196;48.398;11.736;2022-11-20T17:39:13;5.20;99.90
12268;DHT22;6196;48.398;11.736;2022-11-20T17:41:40;5.10;99.90
12268;DHT22;6196;48.398;11.736;2022-11-20T17:44:11;5.10;99.90
12268;DHT22;6196;48.398;11.736;2022-11-20T17:46:38;5.00;99.90
12268;DHT22;6196;48.398;11.736;2022-11-20T17:49:05;5.10;99.90
12268;DHT22;6196;48.398;11.736;2022-11-20T17:51:33;5.10;99.90
12268;DHT22;6196;48.398;11.736;2022-11-20T17:54:04;5.10;99.90
12268;DHT22;6196;48.398;11.736;2022-11-20T17:56:35;5.00;99.90
12268;DHT22;6196;48.398;11.736;2022-11-20T17:59:20;5.00;99.90